sensor_id;sensor_type;location;lat;lon;timestamp;P1;durP1;ratioP1;P2;durP2;ratioP2
72785;SDS011;60902;53.876;10.674;2022-09-09T00:00:05;15.90;;;12.30;;
72785;SDS011;60902;53.876;10.674;2022-09-09T00:00:22;15.50;;;11.88;;
72785;SDS011;60902;53.876;10.674;2022-09-09T00:00:34;15.70;;;11.63;;
72785;SDS011;60902;53.876;10.674;2022-09-09T00:00:53;16.48;;;11.98;;
72785;SDS011;60902;53.876;10.674;2022-09-09T00:01:13;16.17;;;12.43;;
72785;SDS011;60902;53.876;10.674;2022-09-09T00:01:43;15.23;;;11.65;;
72785;SDS011;60902;53.876;10.674;2022-09-09T00:02:01;15.98;;;11.63;;
72785;SDS011;60902;53.876;10.674;2022-09-09T00:02:19;16.15;;;12.05;;
72785;SDS011;60902;53.876;10.674;2022-09-09T00:02:33;15.35;;;11.90;;
72785;SDS011;60902;53.876;10.674;2022-09-09T00:02:46;14.77;;;11.50;;
72785;SDS011;60902;53.876;10.674;2022-09-09T00:03:07;15.52;;;11.30;;
72785;SDS011;60902;53.876;10.674;2022-09-09T00:03:24;15.88;;;11.88;;
72785;SDS011;60902;53.876;10.674;2022-09-09T00:03:39;16.10;;;12.35;;
72785;SDS011;60902;53.876;10.674;2022-09-09T00:03:56;16.23;;;11.82;;
72785;SDS011;60902;53.876;10.674;2022-09-09T00:04:15;15.73;;;11.52;;
72785;SDS011;60902;53.876;10.674;2022-09-09T00:04:33;15.77;;;12.43;;
72785;SDS011;60902;53.876;10.674;2022-09-09T00:04:45;16.00;;;12.73;;
72785;SDS011;60902;53.876;10.674;2022-09-09T00:05:17;15.80;;;11.95;;
72785;SDS011;60902;53.876;10.674;2022-09-09T00:05:34;15.65;;;11.32;;
72785;SDS011;60902;53.876;10.674;2022-09-09T00:05:51;16.45;;;11.93;;
72785;SDS011;60902;53.876;10.674;2022-09-09T00:06:11;16.08;;;12.40;;
72785;SDS011;60902;53.876;10.674;2022-09-09T00:06:31;16.35;;;12.40;;
72785;SDS011;60902;53.876;10.674;2022-09-09T00:06:46;15.65;;;12.23;;
72785;SDS011;60902;53.876;10.674;2022-09-09T00:07:07;15.27;;;11.90;;
72785;SDS011;60902;53.876;10.674;2022-09-09T00:07:25;14.95;;;11.35;;
72785;SDS011;60902;53.876;10.674;2022-09-09T00:07:43;16.27;;;11.90;;
72785;SDS011;60902;53.876;10.674;2022-09-09T00:07:58;17.23;;;12.30;;
72785;SDS011;60902;53.876;10.674;2022-09-09T00:08:13;17.05;;;12.32;;
72785;SDS011;60902;53.876;10.674;2022-09-09T00:08:31;15.70;;;11.77;;
72785;SDS011;60902;53.876;10.674;2022-09-09T00:08:51;15.27;;;11.77;;
72785;SDS011;60902;53.876;10.674;2022-09-09T00:09:12;15.40;;;11.48;;
72785;SDS011;60902;53.876;10.674;2022-09-09T00:09:26;14.93;;;11.30;;
72785;SDS011;60902;53.876;10.674;2022-09-09T00:09:43;15.60;;;11.60;;
72785;SDS011;60902;53.876;10.674;2022-09-09T00:09:59;15.93;;;12.02;;
72785;SDS011;60902;53.876;10.674;2022-09-09T00:10:20;16.15;;;12.23;;
72785;SDS011;60902;53.876;10.674;2022-09-09T00:10:37;16.52;;;12.38;;
72785;SDS011;60902;53.876;10.674;2022-09-09T00:10:53;16.20;;;12.17;;
72785;SDS011;60902;53.876;10.674;2022-09-09T00:11:09;16.10;;;12.40;;
72785;SDS011;60902;53.876;10.674;2022-09-09T00:11:26;16.00;;;12.23;;
72785;SDS011;60902;53.876;10.674;2022-09-09T00:11:42;16.25;;;11.93;;
72785;SDS011;60902;53.876;10.674;2022-09-09T00:11:58;15.90;;;11.80;;
72785;SDS011;60902;53.876;10.674;2022-09-09T00:12:15;15.85;;;11.68;;
72785;SDS011;60902;53.876;10.674;2022-09-09T00:12:33;15.73;;;11.75;;
72785;SDS011;60902;53.876;10.674;2022-09-09T00:12:51;15.65;;;11.90;;
72785;SDS011;60902;53.876;10.674;2022-09-09T00:13:10;15.82;;;11.70;;
72785;SDS011;60902;53.876;10.674;2022-09-09T00:13:30;16.02;;;11.95;;
72785;SDS011;60902;53.876;10.674;2022-09-09T00:13:46;15.00;;;11.27;;
72785;SDS011;60902;53.876;10.674;2022-09-09T00:14:03;14.95;;;11.35;;
72785;SDS011;60902;53.876;10.674;2022-09-09T00:14:26;14.95;;;11.63;;
72785;SDS011;60902;53.876;10.674;2022-09-09T00:14:47;14.88;;;11.90;;
72785;SDS011;60902;53.876;10.674;2022-09-09T00:15:02;16.13;;;12.73;;
72785;SDS011;60902;53.876;10.674;2022-09-09T00:15:22;16.30;;;12.45;;
72785;SDS011;60902;53.876;10.674;2022-09-09T00:15:38;15.82;;;11.88;;
72785;SDS011;60902;53.876;10.674;2022-09-09T00:15:57;17.10;;;12.57;;
72785;SDS011;60902;53.876;10.674;2022-09-09T00:16:15;17.17;;;12.73;;
72785;SDS011;60902;53.876;10.674;2022-09-09T00:16:30;17.20;;;12.27;;
72785;SDS011;60902;53.876;10.674;2022-09-09T00:16:47;17.45;;;12.35;;
72785;SDS011;60902;53.876;10.674;2022-09-09T00:17:03;16.73;;;12.60;;
72785;SDS011;60902;53.876;10.674;2022-09-09T00:17:26;16.83;;;12.48;;
72785;SDS011;60902;53.876;10.674;2022-09-09T00:17:47;15.93;;;11.77;;
72785;SDS011;60902;53.876;10.674;2022-09-09T00:18:05;15.27;;;11.95;;
72785;SDS011;60902;53.876;10.674;2022-09-09T00:18:24;16.98;;;12.45;;
72785;SDS011;60902;53.876;10.674;2022-09-09T00:18:46;15.77;;;11.88;;
72785;SDS011;60902;53.876;10.674;2022-09-09T00:19:04;17.02;;;12.43;;
72785;SDS011;60902;53.876;10.674;2022-09-09T00:19:20;16.85;;;12.63;;
72785;SDS011;60902;53.876;10.674;2022-09-09T00:19:36;16.35;;;13.05;;
72785;SDS011;60902;53.876;10.674;2022-09-09T00:19:55;17.02;;;12.80;;
72785;SDS011;60902;53.876;10.674;2022-09-09T00:20:11;16.67;;;12.60;;
72785;SDS011;60902;53.876;10.674;2022-09-09T00:20:26;16.95;;;12.57;;
72785;SDS011;60902;53.876;10.674;2022-09-09T00:20:43;17.25;;;12.70;;
72785;SDS011;60902;53.876;10.674;2022-09-09T00:21:01;16.92;;;12.25;;
72785;SDS011;60902;53.876;10.674;2022-09-09T00:21:17;17.52;;;12.85;;
72785;SDS011;60902;53.876;10.674;2022-09-09T00:21:30;17.05;;;12.93;;
72785;SDS011;60902;53.876;10.674;2022-09-09T00:21:46;16.52;;;12.57;;
72785;SDS011;60902;53.876;10.674;2022-09-09T00:22:05;16.45;;;12.38;;
72785;SDS011;60902;53.876;10.674;2022-09-09T00:22:24;15.65;;;12.00;;
72785;SDS011;60902;53.876;10.674;2022-09-09T00:22:38;15.80;;;12.10;;
72785;SDS011;60902;53.876;10.674;2022-09-09T00:22:53;17.15;;;12.82;;
72785;SDS011;60902;53.876;10.674;2022-09-09T00:23:11;16.83;;;12.10;;
72785;SDS011;60902;53.876;10.674;2022-09-09T00:23:25;15.95;;;11.88;;
72785;SDS011;60902;53.876;10.674;2022-09-09T00:23:39;16.40;;;12.38;;
72785;SDS011;60902;53.876;10.674;2022-09-09T00:23:54;16.33;;;12.52;;
72785;SDS011;60902;53.876;10.674;2022-09-09T00:24:08;16.20;;;12.68;;
72785;SDS011;60902;53.876;10.674;2022-09-09T00:24:26;16.25;;;12.25;;
72785;SDS011;60902;53.876;10.674;2022-09-09T00:24:44;16.90;;;12.37;;
72785;SDS011;60902;53.876;10.674;2022-09-09T00:24:57;17.33;;;12.60;;
72785;SDS011;60902;53.876;10.674;2022-09-09T00:25:23;16.23;;;12.13;;
72785;SDS011;60902;53.876;10.674;2022-09-09T00:25:40;17.73;;;12.57;;
72785;SDS011;60902;53.876;10.674;2022-09-09T00:25:59;17.55;;;12.77;;
72785;SDS011;60902;53.876;10.674;2022-09-09T00:26:16;16.63;;;12.43;;
72785;SDS011;60902;53.876;10.674;2022-09-09T00:26:35;17.25;;;12.70;;
72785;SDS011;60902;53.876;10.674;2022-09-09T00:26:51;17.08;;;13.07;;
72785;SDS011;60902;53.876;10.674;2022-09-09T00:27:08;17.80;;;13.02;;
72785;SDS011;60902;53.876;10.674;2022-09-09T00:27:27;18.10;;;12.90;;
72785;SDS011;60902;53.876;10.674;2022-09-09T00:27:44;17.48;;;12.90;;
72785;SDS011;60902;53.876;10.674;2022-09-09T00:27:57;17.35;;;12.75;;
72785;SDS011;60902;53.876;10.674;2022-09-09T00:28:09;16.98;;;12.40;;
72785;SDS011;60902;53.876;10.674;2022-09-09T00:28:29;17.58;;;13.00;;
72785;SDS011;60902;53.876;10.674;2022-09-09T00:28:45;16.85;;;12.98;;
72785;SDS011;60902;53.876;10.674;2022-09-09T00:29:03;16.58;;;12.50;;
72785;SDS011;60902;53.876;10.674;2022-09-09T00:29:25;17.48;;;13.05;;
72785;SDS011;60902;53.876;10.674;2022-09-09T00:29:47;17.73;;;12.80;;
72785;SDS011;60902;53.876;10.674;2022-09-09T00:30:13;17.33;;;12.82;;
72785;SDS011;60902;53.876;10.674;2022-09-09T00:30:30;17.80;;;13.10;;
72785;SDS011;60902;53.876;10.674;2022-09-09T00:30:44;17.92;;;13.20;;
72785;SDS011;60902;53.876;10.674;2022-09-09T00:30:59;17.55;;;12.98;;
72785;SDS011;60902;53.876;10.674;2022-09-09T00:31:20;16.85;;;12.52;;
72785;SDS011;60902;53.876;10.674;2022-09-09T00:31:36;17.20;;;13.13;;
72785;SDS011;60902;53.876;10.674;2022-09-09T00:31:47;17.40;;;13.23;;
72785;SDS011;60902;53.876;10.674;2022-09-09T00:32:00;18.15;;;13.73;;
72785;SDS011;60902;53.876;10.674;2022-09-09T00:32:19;19.33;;;14.27;;
72785;SDS011;60902;53.876;10.674;2022-09-09T00:32:31;18.42;;;13.38;;
72785;SDS011;60902;53.876;10.674;2022-09-09T00:32:46;17.33;;;12.35;;
72785;SDS011;60902;53.876;10.674;2022-09-09T00:32:59;18.38;;;12.52;;
72785;SDS011;60902;53.876;10.674;2022-09-09T00:33:15;17.63;;;12.90;;
72785;SDS011;60902;53.876;10.674;2022-09-09T00:33:28;17.05;;;13.27;;
72785;SDS011;60902;53.876;10.674;2022-09-09T00:33:41;17.48;;;13.35;;
72785;SDS011;60902;53.876;10.674;2022-09-09T00:33:53;17.30;;;13.02;;
72785;SDS011;60902;53.876;10.674;2022-09-09T00:34:09;18.05;;;13.13;;
72785;SDS011;60902;53.876;10.674;2022-09-09T00:34:23;17.83;;;12.93;;
72785;SDS011;60902;53.876;10.674;2022-09-09T00:34:36;17.23;;;12.77;;
72785;SDS011;60902;53.876;10.674;2022-09-09T00:34:58;17.75;;;12.95;;
72785;SDS011;60902;53.876;10.674;2022-09-09T00:35:16;17.38;;;12.35;;
72785;SDS011;60902;53.876;10.674;2022-09-09T00:35:32;17.48;;;12.23;;
72785;SDS011;60902;53.876;10.674;2022-09-09T00:35:47;18.48;;;13.32;;
72785;SDS011;60902;53.876;10.674;2022-09-09T00:36:00;18.38;;;13.57;;
72785;SDS011;60902;53.876;10.674;2022-09-09T00:36:13;17.55;;;13.15;;
72785;SDS011;60902;53.876;10.674;2022-09-09T00:36:27;16.95;;;12.70;;
72785;SDS011;60902;53.876;10.674;2022-09-09T00:36:40;17.52;;;12.93;;
72785;SDS011;60902;53.876;10.674;2022-09-09T00:36:53;17.17;;;12.40;;
72785;SDS011;60902;53.876;10.674;2022-09-09T00:37:07;17.45;;;12.55;;
72785;SDS011;60902;53.876;10.674;2022-09-09T00:37:19;17.88;;;13.25;;
72785;SDS011;60902;53.876;10.674;2022-09-09T00:37:32;18.05;;;13.32;;
72785;SDS011;60902;53.876;10.674;2022-09-09T00:37:46;19.02;;;13.55;;
72785;SDS011;60902;53.876;10.674;2022-09-09T00:38:00;19.23;;;13.35;;
72785;SDS011;60902;53.876;10.674;2022-09-09T00:38:22;17.73;;;12.73;;
72785;SDS011;60902;53.876;10.674;2022-09-09T00:38:37;16.95;;;12.48;;
72785;SDS011;60902;53.876;10.674;2022-09-09T00:38:52;17.63;;;13.05;;
72785;SDS011;60902;53.876;10.674;2022-09-09T00:39:08;18.02;;;13.13;;
72785;SDS011;60902;53.876;10.674;2022-09-09T00:39:40;18.05;;;13.05;;
72785;SDS011;60902;53.876;10.674;2022-09-09T00:39:55;17.35;;;13.10;;
72785;SDS011;60902;53.876;10.674;2022-09-09T00:40:15;18.48;;;13.75;;
72785;SDS011;60902;53.876;10.674;2022-09-09T00:40:33;18.60;;;13.70;;
72785;SDS011;60902;53.876;10.674;2022-09-09T00:40:49;18.33;;;13.37;;
72785;SDS011;60902;53.876;10.674;2022-09-09T00:41:04;18.75;;;13.48;;
72785;SDS011;60902;53.876;10.674;2022-09-09T00:41:20;18.15;;;13.38;;
72785;SDS011;60902;53.876;10.674;2022-09-09T00:41:40;17.67;;;13.43;;
72785;SDS011;60902;53.876;10.674;2022-09-09T00:42:05;18.52;;;13.23;;
72785;SDS011;60902;53.876;10.674;2022-09-09T00:42:24;18.88;;;13.98;;
72785;SDS011;60902;53.876;10.674;2022-09-09T00:42:39;18.50;;;14.23;;
72785;SDS011;60902;53.876;10.674;2022-09-09T00:42:54;18.55;;;13.65;;
72785;SDS011;60902;53.876;10.674;2022-09-09T00:43:25;17.95;;;13.13;;
72785;SDS011;60902;53.876;10.674;2022-09-09T00:43:40;19.45;;;13.85;;
72785;SDS011;60902;53.876;10.674;2022-09-09T00:43:55;19.20;;;13.88;;
72785;SDS011;60902;53.876;10.674;2022-09-09T00:44:12;18.42;;;13.35;;
72785;SDS011;60902;53.876;10.674;2022-09-09T00:44:32;19.00;;;13.60;;
72785;SDS011;60902;53.876;10.674;2022-09-09T00:44:51;18.77;;;13.48;;
72785;SDS011;60902;53.876;10.674;2022-09-09T00:45:10;18.38;;;13.57;;
72785;SDS011;60902;53.876;10.674;2022-09-09T00:45:40;18.10;;;13.20;;
72785;SDS011;60902;53.876;10.674;2022-09-09T00:46:14;19.27;;;14.38;;
72785;SDS011;60902;53.876;10.674;2022-09-09T00:46:56;17.63;;;13.25;;
72785;SDS011;60902;53.876;10.674;2022-09-09T00:47:19;18.08;;;13.40;;
72785;SDS011;60902;53.876;10.674;2022-09-09T00:47:49;17.40;;;12.65;;
72785;SDS011;60902;53.876;10.674;2022-09-09T00:48:01;18.90;;;13.07;;
72785;SDS011;60902;53.876;10.674;2022-09-09T00:48:18;20.35;;;13.68;;
72785;SDS011;60902;53.876;10.674;2022-09-09T00:48:33;19.83;;;13.82;;
72785;SDS011;60902;53.876;10.674;2022-09-09T00:48:57;18.75;;;13.80;;
72785;SDS011;60902;53.876;10.674;2022-09-09T00:49:15;18.55;;;13.32;;
72785;SDS011;60902;53.876;10.674;2022-09-09T00:49:36;18.85;;;13.50;;
72785;SDS011;60902;53.876;10.674;2022-09-09T00:49:59;20.58;;;13.82;;
72785;SDS011;60902;53.876;10.674;2022-09-09T00:50:17;20.03;;;13.83;;
72785;SDS011;60902;53.876;10.674;2022-09-09T00:50:43;18.75;;;13.35;;
72785;SDS011;60902;53.876;10.674;2022-09-09T00:51:03;18.45;;;13.45;;
72785;SDS011;60902;53.876;10.674;2022-09-09T00:51:25;18.25;;;12.82;;
72785;SDS011;60902;53.876;10.674;2022-09-09T00:51:46;19.27;;;13.35;;
72785;SDS011;60902;53.876;10.674;2022-09-09T00:52:08;18.50;;;13.70;;
72785;SDS011;60902;53.876;10.674;2022-09-09T00:52:31;18.55;;;13.60;;
72785;SDS011;60902;53.876;10.674;2022-09-09T00:52:51;18.88;;;13.90;;
72785;SDS011;60902;53.876;10.674;2022-09-09T00:53:13;18.38;;;13.15;;
72785;SDS011;60902;53.876;10.674;2022-09-09T00:53:51;18.48;;;13.93;;
72785;SDS011;60902;53.876;10.674;2022-09-09T00:54:27;18.45;;;13.50;;
72785;SDS011;60902;53.876;10.674;2022-09-09T00:54:44;18.45;;;13.65;;
72785;SDS011;60902;53.876;10.674;2022-09-09T00:55:07;20.55;;;14.45;;
72785;SDS011;60902;53.876;10.674;2022-09-09T00:55:26;19.40;;;14.07;;
72785;SDS011;60902;53.876;10.674;2022-09-09T00:55:45;19.33;;;13.45;;
72785;SDS011;60902;53.876;10.674;2022-09-09T00:56:00;20.63;;;14.43;;
72785;SDS011;60902;53.876;10.674;2022-09-09T00:56:18;19.98;;;14.40;;
72785;SDS011;60902;53.876;10.674;2022-09-09T00:56:33;19.35;;;13.82;;
72785;SDS011;60902;53.876;10.674;2022-09-09T00:56:53;19.77;;;13.77;;
72785;SDS011;60902;53.876;10.674;2022-09-09T00:57:14;19.00;;;13.95;;
72785;SDS011;60902;53.876;10.674;2022-09-09T00:57:37;19.77;;;13.95;;
72785;SDS011;60902;53.876;10.674;2022-09-09T00:57:50;19.75;;;13.68;;
72785;SDS011;60902;53.876;10.674;2022-09-09T00:58:02;18.90;;;13.10;;
72785;SDS011;60902;53.876;10.674;2022-09-09T00:58:17;19.00;;;13.60;;
72785;SDS011;60902;53.876;10.674;2022-09-09T00:58:28;19.27;;;13.73;;
72785;SDS011;60902;53.876;10.674;2022-09-09T00:58:39;18.10;;;13.10;;
72785;SDS011;60902;53.876;10.674;2022-09-09T00:58:54;18.27;;;13.23;;
72785;SDS011;60902;53.876;10.674;2022-09-09T00:59:15;18.80;;;13.40;;
72785;SDS011;60902;53.876;10.674;2022-09-09T00:59:40;18.90;;;13.77;;
72785;SDS011;60902;53.876;10.674;2022-09-09T00:59:58;18.83;;;13.60;;
72785;SDS011;60902;53.876;10.674;2022-09-09T01:00:26;18.48;;;13.85;;
72785;SDS011;60902;53.876;10.674;2022-09-09T01:00:40;18.80;;;13.85;;
72785;SDS011;60902;53.876;10.674;2022-09-09T01:00:57;19.38;;;14.02;;
72785;SDS011;60902;53.876;10.674;2022-09-09T01:01:16;19.10;;;13.80;;
72785;SDS011;60902;53.876;10.674;2022-09-09T01:01:27;18.48;;;13.68;;
72785;SDS011;60902;53.876;10.674;2022-09-09T01:01:38;18.75;;;13.60;;
72785;SDS011;60902;53.876;10.674;2022-09-09T01:01:49;18.45;;;13.45;;
72785;SDS011;60902;53.876;10.674;2022-09-09T01:02:02;19.25;;;13.40;;
72785;SDS011;60902;53.876;10.674;2022-09-09T01:02:26;18.85;;;13.27;;
72785;SDS011;60902;53.876;10.674;2022-09-09T01:02:43;18.17;;;13.13;;
72785;SDS011;60902;53.876;10.674;2022-09-09T01:03:05;19.00;;;13.68;;
72785;SDS011;60902;53.876;10.674;2022-09-09T01:03:30;18.92;;;13.68;;
72785;SDS011;60902;53.876;10.674;2022-09-09T01:03:46;18.05;;;13.57;;
72785;SDS011;60902;53.876;10.674;2022-09-09T01:04:04;18.70;;;13.77;;
72785;SDS011;60902;53.876;10.674;2022-09-09T01:04:23;19.00;;;14.30;;
72785;SDS011;60902;53.876;10.674;2022-09-09T01:04:39;19.50;;;14.23;;
72785;SDS011;60902;53.876;10.674;2022-09-09T01:04:52;19.75;;;13.77;;
72785;SDS011;60902;53.876;10.674;2022-09-09T01:05:04;20.63;;;14.10;;
72785;SDS011;60902;53.876;10.674;2022-09-09T01:05:24;19.30;;;13.88;;
72785;SDS011;60902;53.876;10.674;2022-09-09T01:05:42;19.27;;;14.00;;
72785;SDS011;60902;53.876;10.674;2022-09-09T01:06:26;18.95;;;14.10;;
72785;SDS011;60902;53.876;10.674;2022-09-09T01:06:41;20.92;;;14.25;;
72785;SDS011;60902;53.876;10.674;2022-09-09T01:06:54;20.77;;;13.98;;
72785;SDS011;60902;53.876;10.674;2022-09-09T01:07:13;19.48;;;14.20;;
72785;SDS011;60902;53.876;10.674;2022-09-09T01:07:28;18.75;;;13.88;;
72785;SDS011;60902;53.876;10.674;2022-09-09T01:07:39;18.80;;;13.85;;
72785;SDS011;60902;53.876;10.674;2022-09-09T01:07:54;19.02;;;13.88;;
72785;SDS011;60902;53.876;10.674;2022-09-09T01:08:11;18.90;;;13.80;;
72785;SDS011;60902;53.876;10.674;2022-09-09T01:08:35;19.80;;;14.25;;
72785;SDS011;60902;53.876;10.674;2022-09-09T01:09:00;18.95;;;14.10;;
72785;SDS011;60902;53.876;10.674;2022-09-09T01:09:21;19.15;;;14.50;;
72785;SDS011;60902;53.876;10.674;2022-09-09T01:09:38;19.98;;;14.50;;
72785;SDS011;60902;53.876;10.674;2022-09-09T01:10:03;19.65;;;13.85;;
72785;SDS011;60902;53.876;10.674;2022-09-09T01:10:26;19.08;;;14.13;;
72785;SDS011;60902;53.876;10.674;2022-09-09T01:10:44;19.48;;;14.65;;
72785;SDS011;60902;53.876;10.674;2022-09-09T01:11:00;19.90;;;14.33;;
72785;SDS011;60902;53.876;10.674;2022-09-09T01:11:14;19.27;;;14.00;;
72785;SDS011;60902;53.876;10.674;2022-09-09T01:11:31;18.80;;;14.00;;
72785;SDS011;60902;53.876;10.674;2022-09-09T01:11:49;19.20;;;13.93;;
72785;SDS011;60902;53.876;10.674;2022-09-09T01:12:09;20.02;;;14.35;;
72785;SDS011;60902;53.876;10.674;2022-09-09T01:12:26;19.15;;;14.10;;
72785;SDS011;60902;53.876;10.674;2022-09-09T01:12:43;19.48;;;13.52;;
72785;SDS011;60902;53.876;10.674;2022-09-09T01:12:59;19.30;;;13.55;;
72785;SDS011;60902;53.876;10.674;2022-09-09T01:13:14;18.83;;;13.95;;
72785;SDS011;60902;53.876;10.674;2022-09-09T01:13:36;19.60;;;14.07;;
72785;SDS011;60902;53.876;10.674;2022-09-09T01:13:47;20.30;;;14.57;;
72785;SDS011;60902;53.876;10.674;2022-09-09T01:14:05;20.13;;;14.05;;
72785;SDS011;60902;53.876;10.674;2022-09-09T01:14:29;19.30;;;13.68;;
72785;SDS011;60902;53.876;10.674;2022-09-09T01:14:48;20.50;;;14.98;;
72785;SDS011;60902;53.876;10.674;2022-09-09T01:15:08;19.92;;;14.15;;
72785;SDS011;60902;53.876;10.674;2022-09-09T01:15:21;18.65;;;13.13;;
72785;SDS011;60902;53.876;10.674;2022-09-09T01:15:35;18.13;;;13.45;;
72785;SDS011;60902;53.876;10.674;2022-09-09T01:15:49;19.17;;;14.45;;
72785;SDS011;60902;53.876;10.674;2022-09-09T01:16:03;18.88;;;14.02;;
72785;SDS011;60902;53.876;10.674;2022-09-09T01:16:21;18.30;;;13.43;;
72785;SDS011;60902;53.876;10.674;2022-09-09T01:16:32;19.02;;;13.85;;
72785;SDS011;60902;53.876;10.674;2022-09-09T01:16:44;18.95;;;13.60;;
72785;SDS011;60902;53.876;10.674;2022-09-09T01:16:57;18.58;;;13.45;;
72785;SDS011;60902;53.876;10.674;2022-09-09T01:17:14;18.52;;;13.63;;
72785;SDS011;60902;53.876;10.674;2022-09-09T01:17:28;19.55;;;14.15;;
72785;SDS011;60902;53.876;10.674;2022-09-09T01:17:50;19.27;;;13.77;;
72785;SDS011;60902;53.876;10.674;2022-09-09T01:18:08;18.63;;;13.48;;
72785;SDS011;60902;53.876;10.674;2022-09-09T01:18:23;19.35;;;14.20;;
72785;SDS011;60902;53.876;10.674;2022-09-09T01:18:39;18.92;;;14.20;;
72785;SDS011;60902;53.876;10.674;2022-09-09T01:18:53;18.80;;;13.85;;
72785;SDS011;60902;53.876;10.674;2022-09-09T01:19:06;18.92;;;13.80;;
72785;SDS011;60902;53.876;10.674;2022-09-09T01:19:27;19.13;;;14.15;;
72785;SDS011;60902;53.876;10.674;2022-09-09T01:19:52;18.70;;;13.90;;
72785;SDS011;60902;53.876;10.674;2022-09-09T01:20:14;19.50;;;14.82;;
72785;SDS011;60902;53.876;10.674;2022-09-09T01:20:29;19.50;;;14.55;;
72785;SDS011;60902;53.876;10.674;2022-09-09T01:20:48;19.13;;;13.98;;
72785;SDS011;60902;53.876;10.674;2022-09-09T01:21:07;19.55;;;14.20;;
72785;SDS011;60902;53.876;10.674;2022-09-09T01:21:29;19.38;;;14.10;;
72785;SDS011;60902;53.876;10.674;2022-09-09T01:21:53;18.77;;;13.55;;
72785;SDS011;60902;53.876;10.674;2022-09-09T01:22:11;19.48;;;14.32;;
72785;SDS011;60902;53.876;10.674;2022-09-09T01:22:37;18.63;;;13.88;;
72785;SDS011;60902;53.876;10.674;2022-09-09T01:22:58;19.52;;;13.63;;
72785;SDS011;60902;53.876;10.674;2022-09-09T01:23:28;19.50;;;14.32;;
72785;SDS011;60902;53.876;10.674;2022-09-09T01:23:54;19.08;;;14.40;;
72785;SDS011;60902;53.876;10.674;2022-09-09T01:24:22;18.70;;;13.70;;
72785;SDS011;60902;53.876;10.674;2022-09-09T01:24:38;19.70;;;14.35;;
72785;SDS011;60902;53.876;10.674;2022-09-09T01:25:06;20.30;;;14.95;;
72785;SDS011;60902;53.876;10.674;2022-09-09T01:25:29;19.20;;;14.43;;
72785;SDS011;60902;53.876;10.674;2022-09-09T01:26:45;19.63;;;14.48;;
72785;SDS011;60902;53.876;10.674;2022-09-09T01:26:56;20.55;;;14.68;;
72785;SDS011;60902;53.876;10.674;2022-09-09T01:27:10;20.23;;;14.68;;
72785;SDS011;60902;53.876;10.674;2022-09-09T01:27:22;20.15;;;14.02;;
72785;SDS011;60902;53.876;10.674;2022-09-09T01:27:35;20.60;;;14.23;;
72785;SDS011;60902;53.876;10.674;2022-09-09T01:27:47;20.35;;;14.20;;
72785;SDS011;60902;53.876;10.674;2022-09-09T01:28:02;17.75;;;13.23;;
72785;SDS011;60902;53.876;10.674;2022-09-09T01:28:21;18.05;;;13.18;;
72785;SDS011;60902;53.876;10.674;2022-09-09T01:28:35;19.58;;;13.88;;
72785;SDS011;60902;53.876;10.674;2022-09-09T01:28:47;19.75;;;13.93;;
72785;SDS011;60902;53.876;10.674;2022-09-09T01:29:02;19.45;;;13.90;;
72785;SDS011;60902;53.876;10.674;2022-09-09T01:29:18;19.05;;;13.68;;
72785;SDS011;60902;53.876;10.674;2022-09-09T01:29:31;18.95;;;13.68;;
72785;SDS011;60902;53.876;10.674;2022-09-09T01:29:43;18.42;;;13.88;;
72785;SDS011;60902;53.876;10.674;2022-09-09T01:29:54;19.17;;;14.38;;
72785;SDS011;60902;53.876;10.674;2022-09-09T01:30:07;19.58;;;14.73;;
72785;SDS011;60902;53.876;10.674;2022-09-09T01:30:20;20.40;;;15.50;;
72785;SDS011;60902;53.876;10.674;2022-09-09T01:30:32;19.25;;;14.57;;
72785;SDS011;60902;53.876;10.674;2022-09-09T01:30:45;18.42;;;13.77;;
72785;SDS011;60902;53.876;10.674;2022-09-09T01:30:56;19.30;;;14.40;;
72785;SDS011;60902;53.876;10.674;2022-09-09T01:31:07;20.30;;;14.87;;
72785;SDS011;60902;53.876;10.674;2022-09-09T01:31:23;19.85;;;14.80;;
72785;SDS011;60902;53.876;10.674;2022-09-09T01:31:40;19.42;;;14.82;;
72785;SDS011;60902;53.876;10.674;2022-09-09T01:31:52;19.25;;;14.32;;
72785;SDS011;60902;53.876;10.674;2022-09-09T01:32:54;20.75;;;14.68;;
72785;SDS011;60902;53.876;10.674;2022-09-09T01:33:11;19.38;;;14.30;;
72785;SDS011;60902;53.876;10.674;2022-09-09T01:33:24;20.10;;;14.57;;
72785;SDS011;60902;53.876;10.674;2022-09-09T01:33:35;20.17;;;14.93;;
72785;SDS011;60902;53.876;10.674;2022-09-09T01:33:46;19.17;;;14.35;;
72785;SDS011;60902;53.876;10.674;2022-09-09T01:33:57;18.88;;;14.18;;
72785;SDS011;60902;53.876;10.674;2022-09-09T01:34:09;18.95;;;14.00;;
72785;SDS011;60902;53.876;10.674;2022-09-09T01:34:22;19.75;;;14.27;;
72785;SDS011;60902;53.876;10.674;2022-09-09T01:34:35;19.42;;;14.45;;
72785;SDS011;60902;53.876;10.674;2022-09-09T01:34:50;19.67;;;14.50;;
72785;SDS011;60902;53.876;10.674;2022-09-09T01:35:02;19.77;;;14.43;;
72785;SDS011;60902;53.876;10.674;2022-09-09T01:35:17;20.10;;;14.32;;
72785;SDS011;60902;53.876;10.674;2022-09-09T01:35:39;20.08;;;14.77;;
72785;SDS011;60902;53.876;10.674;2022-09-09T01:35:53;19.50;;;14.75;;
72785;SDS011;60902;53.876;10.674;2022-09-09T01:36:11;18.48;;;14.45;;
72785;SDS011;60902;53.876;10.674;2022-09-09T01:36:29;19.50;;;14.50;;
72785;SDS011;60902;53.876;10.674;2022-09-09T01:36:45;19.95;;;14.82;;
72785;SDS011;60902;53.876;10.674;2022-09-09T01:37:02;20.15;;;15.23;;
72785;SDS011;60902;53.876;10.674;2022-09-09T01:37:15;20.90;;;16.02;;
72785;SDS011;60902;53.876;10.674;2022-09-09T01:37:26;20.75;;;15.68;;
72785;SDS011;60902;53.876;10.674;2022-09-09T01:37:37;20.45;;;14.77;;
72785;SDS011;60902;53.876;10.674;2022-09-09T01:37:48;19.27;;;14.02;;
72785;SDS011;60902;53.876;10.674;2022-09-09T01:37:59;19.67;;;14.75;;
72785;SDS011;60902;53.876;10.674;2022-09-09T01:38:10;19.88;;;14.95;;
72785;SDS011;60902;53.876;10.674;2022-09-09T01:38:22;19.70;;;14.90;;
72785;SDS011;60902;53.876;10.674;2022-09-09T01:38:34;20.50;;;15.15;;
72785;SDS011;60902;53.876;10.674;2022-09-09T01:38:46;20.55;;;15.15;;
72785;SDS011;60902;53.876;10.674;2022-09-09T01:38:57;19.85;;;14.75;;
72785;SDS011;60902;53.876;10.674;2022-09-09T01:39:08;19.25;;;14.50;;
72785;SDS011;60902;53.876;10.674;2022-09-09T01:39:19;19.27;;;14.40;;
72785;SDS011;60902;53.876;10.674;2022-09-09T01:39:32;19.83;;;14.20;;
72785;SDS011;60902;53.876;10.674;2022-09-09T01:39:44;19.77;;;13.88;;
72785;SDS011;60902;53.876;10.674;2022-09-09T01:39:56;19.08;;;13.70;;
72785;SDS011;60902;53.876;10.674;2022-09-09T01:40:08;18.73;;;14.00;;
72785;SDS011;60902;53.876;10.674;2022-09-09T01:40:19;18.50;;;14.15;;
72785;SDS011;60902;53.876;10.674;2022-09-09T01:40:30;18.48;;;14.02;;
72785;SDS011;60902;53.876;10.674;2022-09-09T01:40:41;19.08;;;14.20;;
72785;SDS011;60902;53.876;10.674;2022-09-09T01:40:52;20.08;;;14.73;;
72785;SDS011;60902;53.876;10.674;2022-09-09T01:41:04;21.02;;;15.18;;